createdAt,value
2017-05-28T00:00:47.284Z,19.48
2017-05-28T00:02:09.754Z,19.44
2017-05-28T00:03:32.214Z,19.41
2017-05-28T00:04:54.065Z,19.43
2017-05-28T00:06:16.539Z,19.47
2017-05-28T00:07:38.504Z,19.44
2017-05-28T00:09:00.887Z,19.48
2017-05-28T00:10:22.724Z,19.43
2017-05-28T00:11:44.544Z,19.33
2017-05-28T00:13:06.404Z,19.32
2017-05-28T00:14:28.997Z,19.37
2017-05-28T00:15:51.453Z,19.31
2017-05-28T00:17:13.305Z,19.32
2017-05-28T00:18:35.751Z,19.29
2017-05-28T00:19:57.834Z,19.26
2017-05-28T00:21:20.086Z,19.29
2017-05-28T00:22:42.381Z,19.28
2017-05-28T00:24:04.547Z,19.31
2017-05-28T00:25:27.534Z,19.13
2017-05-28T00:26:49.062Z,19.16
2017-05-28T00:28:10.994Z,19.16
2017-05-28T00:29:33.144Z,19.18
2017-05-28T00:30:55.743Z,19.11
2017-05-28T00:32:17.905Z,19.04
2017-05-28T00:33:40.062Z,19.08
2017-05-28T00:35:02.602Z,19.07
2017-05-28T00:36:24.427Z,18.99
2017-05-28T00:37:46.603Z,18.91
2017-05-28T00:39:08.445Z,18.87
2017-05-28T00:40:29.955Z,18.85
2017-05-28T00:41:52.474Z,18.76
2017-05-28T00:43:14.631Z,18.81
2017-05-28T00:44:36.465Z,18.85
2017-05-28T00:45:58.614Z,18.84
2017-05-28T00:47:21.152Z,18.76
2017-05-28T00:48:43.300Z,18.7
2017-05-28T00:50:04.926Z,18.63
2017-05-28T00:51:26.753Z,18.66
2017-05-28T00:52:49.205Z,18.57
2017-05-28T00:54:11.060Z,18.54
2017-05-28T00:55:33.386Z,18.5
2017-05-28T00:56:54.877Z,18.51
2017-05-28T00:58:17.281Z,18.5
2017-05-28T00:59:39.743Z,18.48
2017-05-28T01:01:01.891Z,18.5
2017-05-28T01:02:23.494Z,18.52
2017-05-28T01:03:46.345Z,18.52
2017-05-28T01:05:07.561Z,18.45
2017-05-28T01:06:29.752Z,18.47
2017-05-28T01:07:50.927Z,18.36
2017-05-28T01:09:13.434Z,18.39
2017-05-28T01:10:35.660Z,18.41
2017-05-28T01:11:57.516Z,18.37
2017-05-28T01:13:19.338Z,18.44
2017-05-28T01:14:42.195Z,18.35
2017-05-28T01:16:04.331Z,18.39
2017-05-28T01:17:26.163Z,18.35
2017-05-28T01:18:47.991Z,18.36
2017-05-28T01:20:10.412Z,18.29
2017-05-28T01:21:32.876Z,18.25
2017-05-28T01:22:55.046Z,18.15
2017-05-28T01:24:16.896Z,18.2
2017-05-28T01:25:39.697Z,18.2
2017-05-28T01:27:02.165Z,18.25
2017-05-28T01:28:24.317Z,18.27
2017-05-28T01:29:46.146Z,18.14
2017-05-28T01:31:08.594Z,18.29
2017-05-28T01:32:31.044Z,18.25
2017-05-28T01:33:52.876Z,18.25
2017-05-28T01:35:14.493Z,18.21
2017-05-28T01:36:36.381Z,18.2
2017-05-28T01:37:57.895Z,18.25
2017-05-28T01:39:19.730Z,18.15
2017-05-28T01:40:41.862Z,18.27
2017-05-28T01:42:04.086Z,18.14
2017-05-28T01:43:26.259Z,18.17
2017-05-28T01:44:48.135Z,18.12
2017-05-28T01:46:09.975Z,18.11
2017-05-28T01:47:31.156Z,18.17
2017-05-28T01:48:53.356Z,18.17
2017-05-28T01:50:14.864Z,18.18
2017-05-28T01:51:36.696Z,18.05
2017-05-28T01:52:59.257Z,18.03
2017-05-28T01:54:21.111Z,18.05
2017-05-28T01:55:43.604Z,18.08
2017-05-28T01:57:05.916Z,17.99
2017-05-28T01:58:28.678Z,17.95
2017-05-28T01:59:50.196Z,17.89
2017-05-28T02:01:12.044Z,17.99
2017-05-28T02:02:34.224Z,17.9
2017-05-28T02:03:56.531Z,17.92
2017-05-28T02:05:18.186Z,17.87
2017-05-28T02:06:39.705Z,17.95
2017-05-28T02:08:01.543Z,17.84
2017-05-28T02:09:23.721Z,17.84
2017-05-28T02:10:45.252Z,17.78
2017-05-28T02:12:07.713Z,17.75
2017-05-28T02:13:30.007Z,17.79
2017-05-28T02:14:52.653Z,17.77
2017-05-28T02:16:14.815Z,17.81
2017-05-28T02:17:36.966Z,17.84
2017-05-28T02:18:59.115Z,17.84
2017-05-28T02:20:21.255Z,17.81
2017-05-28T02:21:43.171Z,17.78
2017-05-28T02:23:05.313Z,17.7
2017-05-28T02:24:27.706Z,17.75
2017-05-28T02:25:50.254Z,17.64
2017-05-28T02:27:12.715Z,17.68
2017-05-28T02:28:34.243Z,17.66
2017-05-28T02:29:55.485Z,17.7
2017-05-28T02:31:17.926Z,17.63
2017-05-28T02:32:39.887Z,17.7
2017-05-28T02:34:02.115Z,17.66
2017-05-28T02:35:23.964Z,17.62
2017-05-28T02:36:46.144Z,17.63
2017-05-28T02:38:08.613Z,17.54
2017-05-28T02:39:31.103Z,17.56
2017-05-28T02:40:53.245Z,17.56
2017-05-28T02:42:14.783Z,17.56
2017-05-28T02:43:36.634Z,17.55
2017-05-28T02:44:58.517Z,17.64
2017-05-28T02:46:20.989Z,17.72
2017-05-28T02:47:42.805Z,17.62
2017-05-28T02:49:05.264Z,17.7
2017-05-28T02:50:27.414Z,17.66
2017-05-28T02:51:49.287Z,17.66
2017-05-28T02:53:11.730Z,17.66
2017-05-28T02:54:33.242Z,17.59
2017-05-28T02:55:54.439Z,17.68
2017-05-28T02:57:16.272Z,17.68
2017-05-28T02:58:38.628Z,17.78
2017-05-28T03:00:00.465Z,17.77
2017-05-28T03:01:22.933Z,17.84
2017-05-28T03:02:44.142Z,17.84
2017-05-28T03:04:06.656Z,17.84
2017-05-28T03:05:28.859Z,17.86
2017-05-28T03:06:50.101Z,17.84
2017-05-28T03:08:12.445Z,17.87
2017-05-28T03:09:34.376Z,17.82
2017-05-28T03:10:56.199Z,17.82
2017-05-28T03:12:18.352Z,17.75
2017-05-28T03:13:39.972Z,17.78
2017-05-28T03:15:01.935Z,17.75
2017-05-28T03:16:24.464Z,17.79
2017-05-28T03:17:45.971Z,17.84
2017-05-28T03:19:08.250Z,17.74
2017-05-28T03:20:30.881Z,17.78
2017-05-28T03:21:53.357Z,17.84
2017-05-28T03:23:14.866Z,17.82
2017-05-28T03:24:37.020Z,17.82
2017-05-28T03:25:58.804Z,17.82
2017-05-28T03:27:21.283Z,17.79
2017-05-28T03:28:43.517Z,17.82
2017-05-28T03:30:05.044Z,17.77
2017-05-28T03:31:27.841Z,17.75
2017-05-28T03:32:49.661Z,17.78
2017-05-28T03:34:11.173Z,17.7
2017-05-28T03:35:33.343Z,17.72
2017-05-28T03:36:55.162Z,17.56
2017-05-28T03:38:17.483Z,17.52
2017-05-28T03:39:39.644Z,17.54
2017-05-28T03:41:01.550Z,17.41
2017-05-28T03:42:23.115Z,17.49
2017-05-28T03:43:45.395Z,17.44
2017-05-28T03:45:07.553Z,17.51
2017-05-28T03:46:29.797Z,17.48
2017-05-28T03:47:52.233Z,17.48
2017-05-28T03:49:14.541Z,17.52
2017-05-28T03:50:36.814Z,17.46
2017-05-28T03:51:58.345Z,17.37
2017-05-28T03:53:20.584Z,17.55
2017-05-28T03:54:42.780Z,17.56
2017-05-28T03:56:04.701Z,17.64
2017-05-28T03:57:26.936Z,17.74
2017-05-28T03:58:49.347Z,17.84
2017-05-28T04:00:11.174Z,17.92
2017-05-28T04:01:33.402Z,18.07
2017-05-28T04:02:54.893Z,18.1
2017-05-28T04:04:17.414Z,18.23
2017-05-28T04:05:39.871Z,18.35
2017-05-28T04:07:01.749Z,18.37
2017-05-28T04:08:23.589Z,18.5
2017-05-28T04:09:45.183Z,18.62
2017-05-28T04:11:07.140Z,18.72
2017-05-28T04:12:29.291Z,18.92
2017-05-28T04:13:51.145Z,19.02
2017-05-28T04:15:13.644Z,19.18
2017-05-28T04:16:34.523Z,19.31
2017-05-28T04:17:57.033Z,19.44
2017-05-28T04:19:18.956Z,19.5
2017-05-28T04:20:41.186Z,19.71
2017-05-28T04:22:03.023Z,19.86
2017-05-28T04:23:24.853Z,19.91
2017-05-28T04:24:46.377Z,19.96
2017-05-28T04:26:08.839Z,20.05
2017-05-28T04:27:31.030Z,20.05
2017-05-28T04:28:53.194Z,20.16
2017-05-28T04:30:15.863Z,20.35
2017-05-28T04:31:38.692Z,20.36
2017-05-28T04:33:00.884Z,20.58
2017-05-28T04:34:23.061Z,20.88
2017-05-28T04:35:45.264Z,21.01
2017-05-28T04:37:07.660Z,21.1
2017-05-28T04:38:29.824Z,21.19
2017-05-28T04:39:52.054Z,21.37
2017-05-28T04:41:13.591Z,21.65
2017-05-28T04:42:36.183Z,21.83
2017-05-28T04:43:58.701Z,21.99
2017-05-28T04:45:20.545Z,22.31
2017-05-28T04:46:42.373Z,22.57
2017-05-28T04:48:04.780Z,22.76
2017-05-28T04:49:27.315Z,22.95
2017-05-28T04:50:48.874Z,23.12
2017-05-28T04:52:11.031Z,23.25
2017-05-28T04:53:33.483Z,23.42
2017-05-28T04:54:55.313Z,23.58
2017-05-28T04:56:17.477Z,23.54
2017-05-28T04:57:40.082Z,23.55
2017-05-28T04:59:02.236Z,24.32
2017-05-28T05:00:24.553Z,24.98
2017-05-28T05:01:46.386Z,25.08
2017-05-28T05:03:08.527Z,24.76
2017-05-28T05:04:30.713Z,24.28
2017-05-28T05:05:52.874Z,23.88
2017-05-28T05:07:14.971Z,23.57
2017-05-28T05:08:36.164Z,23.36
2017-05-28T05:09:59.140Z,23.31
2017-05-28T05:11:21.078Z,23.19
2017-05-28T05:12:43.693Z,23.31
2017-05-28T05:14:05.861Z,23.23
2017-05-28T05:15:27.701Z,23.28
2017-05-28T05:16:49.220Z,23.36
2017-05-28T05:18:11.387Z,23.51
2017-05-28T05:19:33.272Z,23.75
2017-05-28T05:20:55.484Z,24.3
2017-05-28T05:22:17.635Z,24.88
2017-05-28T05:23:39.806Z,25.94
2017-05-28T05:25:01.971Z,27.09
2017-05-28T05:26:24.523Z,28.11
2017-05-28T05:27:46.074Z,28.7
2017-05-28T05:29:07.929Z,28.74
2017-05-28T05:30:30.090Z,28.4
2017-05-28T05:31:52.354Z,27.97
2017-05-28T05:33:14.213Z,27.36
2017-05-28T05:34:36.383Z,26.94
2017-05-28T05:35:58.223Z,26.45
2017-05-28T05:37:20.092Z,25.95
2017-05-28T05:38:41.934Z,25.18
2017-05-28T05:40:04.500Z,24.34
2017-05-28T05:41:26.343Z,23.7
2017-05-28T05:42:48.870Z,23.31
2017-05-28T05:44:11.077Z,23.07
2017-05-28T05:45:32.613Z,22.94
2017-05-28T05:46:54.783Z,22.79
2017-05-28T05:48:17.691Z,22.65
2017-05-28T05:49:39.874Z,22.47
2017-05-28T05:51:02.144Z,22.36
2017-05-28T05:52:24.633Z,22.15
2017-05-28T05:53:47.032Z,21.98
2017-05-28T05:55:09.223Z,21.82
2017-05-28T05:56:31.380Z,21.72
2017-05-28T05:57:53.043Z,21.54
2017-05-28T05:59:15.882Z,21.53
2017-05-28T06:00:38.362Z,21.42
2017-05-28T06:02:00.915Z,21.49
2017-05-28T06:03:23.074Z,21.5
2017-05-28T06:04:46.000Z,21.53
2017-05-28T06:06:07.533Z,21.58
2017-05-28T06:07:29.379Z,21.49
2017-05-28T06:08:51.842Z,21.4
2017-05-28T06:10:14.121Z,21.49
2017-05-28T06:11:36.335Z,21.46
2017-05-28T06:12:58.805Z,21.5
2017-05-28T06:14:20.967Z,21.59
2017-05-28T06:15:43.726Z,21.44
2017-05-28T06:17:04.933Z,21.49
2017-05-28T06:18:26.129Z,21.32
2017-05-28T06:19:48.279Z,21.24
2017-05-28T06:21:11.155Z,21.01
2017-05-28T06:22:33.324Z,20.95
2017-05-28T06:23:56.237Z,20.79
2017-05-28T06:25:18.071Z,20.61
2017-05-28T06:26:40.522Z,20.47
2017-05-28T06:28:01.744Z,20.43
2017-05-28T06:29:23.735Z,20.29
2017-05-28T06:30:46.200Z,20.18
2017-05-28T06:32:08.059Z,20.1
2017-05-28T06:33:30.265Z,20.08
2017-05-28T06:34:53.608Z,20.01
2017-05-28T06:36:15.905Z,19.96
2017-05-28T06:37:38.382Z,19.88
2017-05-28T06:39:00.217Z,19.88
2017-05-28T06:40:22.702Z,19.84
2017-05-28T06:41:44.604Z,19.81
2017-05-28T06:43:07.322Z,19.86
2017-05-28T06:44:29.482Z,19.83
2017-05-28T06:45:51.650Z,19.88
2017-05-28T06:47:13.820Z,19.98
2017-05-28T06:48:36.702Z,19.99
2017-05-28T06:49:58.254Z,20.02
2017-05-28T06:51:19.839Z,19.96
2017-05-28T06:52:41.685Z,19.99
2017-05-28T06:54:03.844Z,20.01
2017-05-28T06:55:26.323Z,20.06
2017-05-28T06:56:48.521Z,20.06
2017-05-28T06:58:10.983Z,20.11
2017-05-28T06:59:33.561Z,20.1
2017-05-28T07:00:55.743Z,20.06
2017-05-28T07:02:17.924Z,20.08
2017-05-28T07:03:40.093Z,20.06
2017-05-28T07:05:02.443Z,20.06
2017-05-28T07:06:24.904Z,20.1
2017-05-28T07:07:46.751Z,20.06
2017-05-28T07:09:08.614Z,20.11
2017-05-28T07:10:31.325Z,19.99
2017-05-28T07:11:53.610Z,20.06
2017-05-28T07:13:16.097Z,20.1
2017-05-28T07:14:38.583Z,20.2
2017-05-28T07:16:00.449Z,20.2
2017-05-28T07:17:22.288Z,20.28
2017-05-28T07:18:44.819Z,20.41
2017-05-28T07:20:07.003Z,20.58
2017-05-28T07:21:29.143Z,20.64
2017-05-28T07:22:50.764Z,20.77
2017-05-28T07:24:12.762Z,20.82
2017-05-28T07:25:35.064Z,20.82
2017-05-28T07:26:57.458Z,20.74
2017-05-28T07:28:19.369Z,20.85
2017-05-28T07:29:41.943Z,21.13
2017-05-28T07:31:03.794Z,21.4
2017-05-28T07:32:25.721Z,21.54
2017-05-28T07:33:48.200Z,21.77
2017-05-28T07:35:10.371Z,21.84
2017-05-28T07:36:32.683Z,22.09
2017-05-28T07:37:55.190Z,22.25
2017-05-28T07:39:17.739Z,22.31
2017-05-28T07:40:40.243Z,22.31
2017-05-28T07:42:02.751Z,22.14
2017-05-28T07:43:25.258Z,22
2017-05-28T07:44:47.762Z,21.99
2017-05-28T07:46:09.934Z,21.9
2017-05-28T07:47:32.411Z,21.82
2017-05-28T07:48:54.704Z,21.59
2017-05-28T07:50:17.212Z,21.56
2017-05-28T07:51:38.753Z,21.65
2017-05-28T07:53:00.615Z,21.72
2017-05-28T07:54:22.503Z,21.86
2017-05-28T07:55:44.336Z,21.98
2017-05-28T07:57:05.874Z,22.24
2017-05-28T07:58:28.352Z,22.45
2017-05-28T07:59:50.797Z,22.67
2017-05-28T08:01:12.663Z,22.95
2017-05-28T08:02:34.884Z,23.43
2017-05-28T08:03:57.255Z,23.8
2017-05-28T08:05:19.928Z,23.97
2017-05-28T08:06:42.172Z,24.12
2017-05-28T08:08:04.445Z,24.08
2017-05-28T08:09:26.382Z,24.27
2017-05-28T08:10:49.231Z,24.02
2017-05-28T08:12:11.202Z,24.03
2017-05-28T08:13:33.401Z,23.85
2017-05-28T08:14:55.321Z,23.84
2017-05-28T08:16:18.151Z,24.18
2017-05-28T08:17:40.374Z,24.27
2017-05-28T08:19:02.542Z,24.35
2017-05-28T08:20:24.718Z,24.37
2017-05-28T08:21:46.802Z,24.39
2017-05-28T08:23:09.050Z,24.6
2017-05-28T08:24:31.053Z,24.83
2017-05-28T08:25:53.576Z,24.76
2017-05-28T08:27:16.403Z,24.85
2017-05-28T08:28:38.974Z,24.95
2017-05-28T08:30:01.452Z,25
2017-05-28T08:31:23.731Z,25.13
2017-05-28T08:32:46.566Z,25.35
2017-05-28T08:34:08.750Z,25.57
2017-05-28T08:35:30.911Z,25.98
2017-05-28T08:36:52.432Z,26.6
2017-05-28T08:38:14.303Z,27.13
2017-05-28T08:39:36.179Z,27.6
2017-05-28T08:40:58.024Z,27.92
2017-05-28T08:42:19.988Z,28.04
2017-05-28T08:43:42.636Z,28.17
2017-05-28T08:45:04.278Z,28.09
2017-05-28T08:46:26.861Z,28.11
2017-05-28T08:47:49.029Z,28.04
2017-05-28T08:49:11.492Z,27.9
2017-05-28T08:50:33.969Z,27.97
2017-05-28T08:51:56.571Z,28.11
2017-05-28T08:53:18.742Z,28.41
2017-05-28T08:54:41.454Z,28.61
2017-05-28T08:56:03.963Z,28.61
2017-05-28T08:57:25.932Z,28.21
2017-05-28T08:58:47.856Z,27.97
2017-05-28T09:00:10.460Z,27.69
2017-05-28T09:01:31.986Z,27.59
2017-05-28T09:02:54.274Z,27.41
2017-05-28T09:04:16.443Z,27.34
2017-05-28T09:05:39.057Z,27.29
2017-05-28T09:07:01.224Z,27.18
2017-05-28T09:08:23.070Z,27.28
2017-05-28T09:09:44.918Z,27.63
2017-05-28T09:11:07.491Z,28.06
2017-05-28T09:12:29.839Z,28.51
2017-05-28T09:13:52.331Z,28.61
2017-05-28T09:15:14.493Z,28.7
2017-05-28T09:16:37.488Z,28.96
2017-05-28T09:17:59.913Z,29.3
2017-05-28T09:19:21.863Z,29.33
2017-05-28T09:20:43.402Z,29.28
2017-05-28T09:22:06.194Z,29.27
2017-05-28T09:23:28.833Z,29.05
2017-05-28T09:24:50.754Z,29.04
2017-05-28T09:26:12.956Z,28.92
2017-05-28T09:27:35.822Z,28.85
2017-05-28T09:28:58.310Z,28.7
2017-05-28T09:30:19.954Z,28.78
2017-05-28T09:31:42.503Z,28.71
2017-05-28T09:33:04.941Z,28.71
2017-05-28T09:34:26.617Z,28.85
2017-05-28T09:35:49.220Z,28.73
2017-05-28T09:37:11.383Z,28.58
2017-05-28T09:38:33.845Z,28.61
2017-05-28T09:39:56.332Z,28.56
2017-05-28T09:41:18.820Z,28.48
2017-05-28T09:42:41.035Z,28.34
2017-05-28T09:44:03.450Z,28.12
2017-05-28T09:45:25.609Z,27.9
2017-05-28T09:46:47.154Z,27.79
2017-05-28T09:48:09.063Z,27.7
2017-05-28T09:49:31.222Z,27.74
2017-05-28T09:50:53.094Z,27.7
2017-05-28T09:52:14.931Z,27.72
2017-05-28T09:53:37.112Z,27.46
2017-05-28T09:55:00.267Z,27.29
2017-05-28T09:56:22.447Z,27.22
2017-05-28T09:57:44.703Z,27.41
2017-05-28T09:59:06.684Z,27.67
2017-05-28T10:00:29.432Z,27.7
2017-05-28T10:01:51.662Z,27.79
2017-05-28T10:03:13.599Z,27.67
2017-05-28T10:04:35.584Z,27.78
2017-05-28T10:05:58.457Z,27.96
2017-05-28T10:07:20.433Z,28.06
2017-05-28T10:08:42.683Z,28.3
2017-05-28T10:10:05.172Z,28.37
2017-05-28T10:11:27.750Z,28.4
2017-05-28T10:12:49.930Z,28.36
2017-05-28T10:14:12.123Z,28.37
2017-05-28T10:15:34.632Z,28.37
2017-05-28T10:16:57.435Z,28.39
2017-05-28T10:18:19.667Z,28.27
2017-05-28T10:19:41.200Z,28.17
2017-05-28T10:21:03.424Z,28.18
2017-05-28T10:22:25.514Z,28.15
2017-05-28T10:23:47.384Z,28.18
2017-05-28T10:25:08.616Z,28.22
2017-05-28T10:26:30.922Z,28.37
2017-05-28T10:27:52.734Z,28.44
2017-05-28T10:29:15.284Z,28.41
2017-05-28T10:30:37.704Z,28.49
2017-05-28T10:31:59.614Z,28.61
2017-05-28T10:33:22.077Z,28.62
2017-05-28T10:34:43.385Z,28.64
2017-05-28T10:36:05.237Z,28.59
2017-05-28T10:37:27.771Z,28.59
2017-05-28T10:38:49.889Z,28.48
2017-05-28T10:40:12.237Z,28.33
2017-05-28T10:41:33.784Z,28.31
2017-05-28T10:42:56.369Z,28.33
2017-05-28T10:44:18.888Z,28.22
2017-05-28T10:45:41.180Z,28.25
2017-05-28T10:47:03.666Z,28.21
2017-05-28T10:48:26.152Z,28.25
2017-05-28T10:49:48.259Z,28.11
2017-05-28T10:51:09.831Z,28.02
2017-05-28T10:52:32.077Z,28.07
2017-05-28T10:53:53.943Z,28.19
2017-05-28T10:55:16.483Z,28.24
2017-05-28T10:56:38.384Z,28.27
2017-05-28T10:58:00.565Z,28.3
2017-05-28T10:59:22.734Z,28.34
2017-05-28T11:00:45.554Z,28.31
2017-05-28T11:02:08.213Z,28.24
2017-05-28T11:03:30.718Z,28.21
2017-05-28T11:04:52.898Z,28.21
2017-05-28T11:06:15.074Z,28.24
2017-05-28T11:07:37.310Z,28.3
2017-05-28T11:08:59.582Z,28.33
2017-05-28T11:10:21.103Z,28.34
2017-05-28T11:11:43.614Z,28.33
2017-05-28T11:13:06.093Z,28.36
2017-05-28T11:14:27.613Z,28.51
2017-05-28T11:15:49.870Z,28.55
2017-05-28T11:17:12.373Z,28.55
2017-05-28T11:18:34.865Z,28.61
2017-05-28T11:19:56.783Z,28.59
2017-05-28T11:21:19.081Z,28.64
2017-05-28T11:22:41.562Z,28.7
2017-05-28T11:24:04.195Z,28.7
2017-05-28T11:25:26.354Z,28.9
2017-05-28T11:26:49.014Z,28.92
2017-05-28T11:28:11.184Z,28.9
2017-05-28T11:29:33.080Z,28.95
2017-05-28T11:30:54.914Z,29
2017-05-28T11:32:16.462Z,28.96
2017-05-28T11:33:39.255Z,28.93
2017-05-28T11:35:01.112Z,28.98
2017-05-28T11:36:23.286Z,28.96
2017-05-28T11:37:45.813Z,28.96
2017-05-28T11:39:08.284Z,29.02
2017-05-28T11:40:30.260Z,29.05
2017-05-28T11:41:52.493Z,29.06
2017-05-28T11:43:14.986Z,29.12
2017-05-28T11:44:37.797Z,28.96
2017-05-28T11:46:00.178Z,28.96
2017-05-28T11:47:22.346Z,28.96
2017-05-28T11:48:44.989Z,29.04
2017-05-28T11:50:07.423Z,29
2017-05-28T11:51:29.994Z,29
2017-05-28T11:52:51.882Z,28.96
2017-05-28T11:54:14.082Z,29.04
2017-05-28T11:55:36.935Z,29
2017-05-28T11:56:59.486Z,29.04
2017-05-28T11:58:21.660Z,29.02
2017-05-28T11:59:44.201Z,29.09
2017-05-28T12:01:06.108Z,29.05
2017-05-28T12:02:28.604Z,29.05
2017-05-28T12:03:51.080Z,29
2017-05-28T12:05:13.571Z,29.14
2017-05-28T12:06:35.765Z,29.26
2017-05-28T12:07:57.313Z,29.14
2017-05-28T12:09:19.583Z,29.08
2017-05-28T12:10:41.604Z,29.12
2017-05-28T12:12:04.377Z,29.16
2017-05-28T12:13:26.227Z,29.12
2017-05-28T12:14:48.700Z,29.24
2017-05-28T12:16:10.982Z,29.18
2017-05-28T12:17:32.824Z,29.21
2017-05-28T12:18:55.010Z,29.3
2017-05-28T12:20:17.752Z,29.15
2017-05-28T12:21:40.023Z,29.11
2017-05-28T12:23:02.763Z,29.02
2017-05-28T12:24:24.998Z,28.96
2017-05-28T12:25:46.525Z,29.19
2017-05-28T12:27:09.005Z,29.3
2017-05-28T12:28:31.532Z,29.58
2017-05-28T12:29:53.713Z,29.71
2017-05-28T12:31:15.399Z,29.8
2017-05-28T12:32:37.622Z,29.63
2017-05-28T12:34:00.491Z,29.49
2017-05-28T12:35:22.211Z,29.26
2017-05-28T12:36:44.717Z,29.31
2017-05-28T12:38:06.562Z,29.65
2017-05-28T12:39:29.360Z,29.94
2017-05-28T12:40:51.859Z,30.38
2017-05-28T12:42:14.092Z,30.94
2017-05-28T12:43:36.274Z,30.98
2017-05-28T12:44:59.068Z,30.97
2017-05-28T12:46:20.912Z,30.97
2017-05-28T12:47:42.774Z,30.88
2017-05-28T12:49:04.968Z,30.89
2017-05-28T12:50:27.499Z,30.92
2017-05-28T12:51:49.683Z,30.86
2017-05-28T12:53:12.190Z,30.97
2017-05-28T12:54:34.031Z,31.23
2017-05-28T12:55:56.163Z,31.2
2017-05-28T12:57:18.322Z,31.1
2017-05-28T12:58:40.499Z,30.89
2017-05-28T13:00:02.756Z,30.55
2017-05-28T13:01:25.079Z,30.31
2017-05-28T13:02:47.263Z,30
2017-05-28T13:04:09.840Z,29.95
2017-05-28T13:05:32.322Z,29.74
2017-05-28T13:06:54.815Z,29.8
2017-05-28T13:08:16.349Z,29.63
2017-05-28T13:09:38.841Z,29.51
2017-05-28T13:11:00.480Z,29.36
2017-05-28T13:12:22.003Z,29.43
2017-05-28T13:13:43.874Z,29.61
2017-05-28T13:15:06.363Z,29.58
2017-05-28T13:16:28.279Z,29.64
2017-05-28T13:17:50.761Z,29.71
2017-05-28T13:19:12.745Z,29.76
2017-05-28T13:20:34.981Z,29.78
2017-05-28T13:21:56.835Z,29.73
2017-05-28T13:23:19.377Z,29.71
2017-05-28T13:24:42.036Z,29.67
2017-05-28T13:26:04.292Z,29.55
2017-05-28T13:27:26.171Z,29.52
2017-05-28T13:28:49.001Z,29.61
2017-05-28T13:30:10.553Z,29.58
2017-05-28T13:31:32.868Z,29.82
2017-05-28T13:32:55.032Z,29.82
2017-05-28T13:34:17.512Z,29.73
2017-05-28T13:35:39.672Z,29.8
2017-05-28T13:37:01.852Z,29.85
2017-05-28T13:38:24.442Z,29.78
2017-05-28T13:39:47.070Z,29.74
2017-05-28T13:41:09.243Z,29.78
2017-05-28T13:42:31.436Z,29.79
2017-05-28T13:43:53.769Z,29.71
2017-05-28T13:45:16.537Z,29.63
2017-05-28T13:46:39.063Z,29.57
2017-05-28T13:48:01.237Z,29.64
2017-05-28T13:49:23.424Z,29.61
2017-05-28T13:50:45.644Z,29.63
2017-05-28T13:52:08.042Z,29.61
2017-05-28T13:53:30.678Z,29.6
2017-05-28T13:54:52.935Z,29.57
2017-05-28T13:56:15.490Z,29.65
2017-05-28T13:57:37.399Z,29.64
2017-05-28T13:58:59.902Z,29.7
2017-05-28T14:00:22.072Z,29.79
2017-05-28T14:01:44.596Z,29.74
2017-05-28T14:03:07.151Z,29.85
2017-05-28T14:04:29.339Z,29.86
2017-05-28T14:05:51.419Z,29.83
2017-05-28T14:07:13.789Z,29.85
2017-05-28T14:08:35.974Z,29.78
2017-05-28T14:09:58.166Z,29.7
2017-05-28T14:11:20.678Z,29.7
2017-05-28T14:12:42.911Z,29.48
2017-05-28T14:14:04.899Z,29.49
2017-05-28T14:15:27.074Z,29.55
2017-05-28T14:16:49.230Z,29.28
2017-05-28T14:18:11.680Z,29.11
2017-05-28T14:19:34.184Z,29.06
2017-05-28T14:20:56.471Z,29.05
2017-05-28T14:22:18.640Z,29.02
2017-05-28T14:23:41.642Z,29
2017-05-28T14:25:03.553Z,29.19
2017-05-28T14:26:26.072Z,29.27
2017-05-28T14:27:48.312Z,29.19
2017-05-28T14:29:11.190Z,29.16
2017-05-28T14:30:33.667Z,29.26
2017-05-28T14:31:55.838Z,29.27
2017-05-28T14:33:17.382Z,29.27
2017-05-28T14:34:39.944Z,29.23
2017-05-28T14:36:02.201Z,29.24
2017-05-28T14:37:24.370Z,29.26
2017-05-28T14:38:45.961Z,29.37
2017-05-28T14:40:08.790Z,29.28
2017-05-28T14:41:30.948Z,29.33
2017-05-28T14:42:53.132Z,29.34
2017-05-28T14:44:15.711Z,29.45
2017-05-28T14:45:38.251Z,29.34
2017-05-28T14:47:00.250Z,29.19
2017-05-28T14:48:22.454Z,29.23
2017-05-28T14:49:44.976Z,29.18
2017-05-28T14:51:07.446Z,29.31
2017-05-28T14:52:29.011Z,29.31
2017-05-28T14:53:51.203Z,29.3
2017-05-28T14:55:13.440Z,29.21
2017-05-28T14:56:36.301Z,29.08
2017-05-28T14:57:58.510Z,29.09
2017-05-28T14:59:20.686Z,29.14
2017-05-28T15:00:42.570Z,28.89
2017-05-28T15:02:05.102Z,28.85
2017-05-28T15:03:27.305Z,28.61
2017-05-28T15:04:49.468Z,28.46
2017-05-28T15:06:11.322Z,28.14
2017-05-28T15:07:33.786Z,28.18
2017-05-28T15:08:56.274Z,28.24
2017-05-28T15:10:18.962Z,28.39
2017-05-28T15:11:41.130Z,28.43
2017-05-28T15:13:03.240Z,28.59
2017-05-28T15:14:25.416Z,28.62
2017-05-28T15:15:47.612Z,28.61
2017-05-28T15:17:10.117Z,28.62
2017-05-28T15:18:32.955Z,28.62
2017-05-28T15:19:54.865Z,28.59
2017-05-28T15:21:17.350Z,28.49
2017-05-28T15:22:39.571Z,28.44
2017-05-28T15:24:02.458Z,28.46
2017-05-28T15:25:24.782Z,28.46
2017-05-28T15:26:46.974Z,28.41
2017-05-28T15:28:09.449Z,28.52
2017-05-28T15:29:32.249Z,28.44
2017-05-28T15:30:54.134Z,28.51
2017-05-28T15:32:16.529Z,28.44
2017-05-28T15:33:39.053Z,28.46
2017-05-28T15:35:01.887Z,28.4
2017-05-28T15:36:24.072Z,28.3
2017-05-28T15:37:46.251Z,28.39
2017-05-28T15:39:08.123Z,28.48
2017-05-28T15:40:30.346Z,28.62
2017-05-28T15:41:52.202Z,28.61
2017-05-28T15:43:14.776Z,28.61
2017-05-28T15:44:37.073Z,28.41
2017-05-28T15:45:59.199Z,28.44
2017-05-28T15:47:21.112Z,28.4
2017-05-28T15:48:43.639Z,28.48
2017-05-28T15:50:05.220Z,28.43
2017-05-28T15:51:27.082Z,28.33
2017-05-28T15:52:49.296Z,28.37
2017-05-28T15:54:11.788Z,28.37
2017-05-28T15:55:34.070Z,28.41
2017-05-28T15:56:56.932Z,28.4
2017-05-28T15:58:19.427Z,28.31
2017-05-28T15:59:41.269Z,28.37
2017-05-28T16:01:03.456Z,28.43
2017-05-28T16:02:26.311Z,28.52
2017-05-28T16:03:48.801Z,28.51
2017-05-28T16:05:11.399Z,28.51
2017-05-28T16:06:33.916Z,28.39
2017-05-28T16:07:56.093Z,28.41
2017-05-28T16:09:18.590Z,28.48
2017-05-28T16:10:41.141Z,28.46
2017-05-28T16:12:03.331Z,28.17
2017-05-28T16:13:26.360Z,27.99
2017-05-28T16:14:48.346Z,27.79
2017-05-28T16:16:10.961Z,27.85
2017-05-28T16:17:33.449Z,28.06
2017-05-28T16:18:56.021Z,27.69
2017-05-28T16:20:18.193Z,27.54
2017-05-28T16:21:40.680Z,27.57
2017-05-28T16:23:02.858Z,27.63
2017-05-28T16:24:24.741Z,27.55
2017-05-28T16:25:46.941Z,27.5
2017-05-28T16:27:08.811Z,27.17
2017-05-28T16:28:31.521Z,27.14
2017-05-28T16:29:53.629Z,27.09
2017-05-28T16:31:15.860Z,26.91
2017-05-28T16:32:38.409Z,26.77
2017-05-28T16:34:00.623Z,26.75
2017-05-28T16:35:22.516Z,26.6
2017-05-28T16:36:44.818Z,26.66
2017-05-28T16:38:07.472Z,26.77
2017-05-28T16:39:30.129Z,26.65
2017-05-28T16:40:52.667Z,26.69
2017-05-28T16:42:15.336Z,26.55
2017-05-28T16:43:37.230Z,26.57
2017-05-28T16:44:59.218Z,26.67
2017-05-28T16:46:21.076Z,26.69
2017-05-28T16:47:43.570Z,26.62
2017-05-28T16:49:05.423Z,26.44
2017-05-28T16:50:27.585Z,26.32
2017-05-28T16:51:50.181Z,26.37
2017-05-28T16:53:12.168Z,26.28
2017-05-28T16:54:34.350Z,26.13
2017-05-28T16:55:56.209Z,26.02
2017-05-28T16:57:18.962Z,26.12
2017-05-28T16:58:41.450Z,25.99
2017-05-28T17:00:03.966Z,25.92
2017-05-28T17:01:26.351Z,25.67
2017-05-28T17:02:48.895Z,25.61
2017-05-28T17:04:11.382Z,25.51
2017-05-28T17:05:33.199Z,25.5
2017-05-28T17:06:55.129Z,25.6
2017-05-28T17:08:17.643Z,25.54
2017-05-28T17:09:39.842Z,25.33
2017-05-28T17:11:01.398Z,25.35
2017-05-28T17:12:25.038Z,25.45
2017-05-28T17:13:48.121Z,25.38
2017-05-28T17:15:09.970Z,25.35
2017-05-28T17:16:32.046Z,25.21
2017-05-28T17:17:54.656Z,25.18
2017-05-28T17:19:17.142Z,24.95
2017-05-28T17:20:39.653Z,24.81
2017-05-28T17:22:01.523Z,24.87
2017-05-28T17:23:23.732Z,24.81
2017-05-28T17:24:45.952Z,24.85
2017-05-28T17:26:08.487Z,24.9
2017-05-28T17:27:30.980Z,24.83
2017-05-28T17:28:52.864Z,24.98
2017-05-28T17:30:15.447Z,25.03
2017-05-28T17:31:38.024Z,24.91
2017-05-28T17:32:59.602Z,24.73
2017-05-28T17:34:22.103Z,24.58
2017-05-28T17:35:44.929Z,24.47
2017-05-28T17:37:06.793Z,24.3
2017-05-28T17:38:29.305Z,24.34
2017-05-28T17:39:51.540Z,24.4
2017-05-28T17:41:14.064Z,24.43
2017-05-28T17:42:36.322Z,24.45